createdAt,value
2023-07-29T00:00:39.538Z,95798
2023-07-29T00:02:39.519Z,95798
2023-07-29T00:06:39.842Z,95791
2023-07-29T00:08:39.574Z,95790
2023-07-29T00:10:39.548Z,95796
2023-07-29T00:13:39.580Z,95795
2023-07-29T00:15:39.583Z,95793
2023-07-29T00:17:39.583Z,95785
2023-07-29T00:19:39.574Z,95781
2023-07-29T00:21:39.624Z,95780
2023-07-29T00:23:39.568Z,95779
2023-07-29T00:25:39.601Z,95775
2023-07-29T00:29:39.608Z,95774
2023-07-29T00:31:39.659Z,95775
2023-07-29T00:34:39.611Z,95770
2023-07-29T00:38:39.647Z,95764
2023-07-29T00:41:39.665Z,95763
2023-07-29T00:43:39.641Z,95761
2023-07-29T00:45:39.648Z,95765
2023-07-29T00:47:39.730Z,95766
2023-07-29T00:49:39.696Z,95761
2023-07-29T00:51:39.639Z,95756
2023-07-29T00:53:39.685Z,95759
2023-07-29T00:55:39.678Z,95756
2023-07-29T00:58:39.679Z,95754
2023-07-29T01:01:39.727Z,95754
2023-07-29T01:03:39.826Z,95757
2023-07-29T01:07:39.676Z,95758
2023-07-29T01:09:39.717Z,95756
2023-07-29T01:12:39.723Z,95752
2023-07-29T01:14:39.734Z,95756
2023-07-29T01:17:39.745Z,95752
2023-07-29T01:19:39.722Z,95750
2023-07-29T01:21:39.748Z,95748
2023-07-29T01:23:39.758Z,95754
2023-07-29T01:25:39.706Z,95752
2023-07-29T01:27:39.758Z,95752
2023-07-29T01:29:39.983Z,95749
2023-07-29T01:34:39.788Z,95765
2023-07-29T01:36:39.772Z,95763
2023-07-29T01:38:39.750Z,95758
2023-07-29T01:40:39.795Z,95752
2023-07-29T01:42:39.792Z,95759
2023-07-29T01:44:39.800Z,95762
2023-07-29T01:46:39.783Z,95764
2023-07-29T01:48:39.823Z,95772
2023-07-29T01:50:39.868Z,95779
2023-07-29T01:52:39.821Z,95783
2023-07-29T01:54:39.809Z,95776
2023-07-29T01:56:39.848Z,95773
2023-07-29T01:58:39.840Z,95764
2023-07-29T02:00:39.867Z,95758
2023-07-29T02:02:39.854Z,95757
2023-07-29T02:04:39.933Z,95754
2023-07-29T02:06:39.850Z,95755
2023-07-29T02:08:39.863Z,95749
2023-07-29T02:10:39.859Z,95745
2023-07-29T02:12:39.851Z,95738
2023-07-29T02:14:39.891Z,95732
2023-07-29T02:16:40.239Z,95728
2023-07-29T02:18:39.896Z,95721
2023-07-29T02:20:39.891Z,95725
2023-07-29T02:22:39.914Z,95725
2023-07-29T02:24:39.913Z,95731
2023-07-29T02:26:39.901Z,95732
2023-07-29T02:28:39.896Z,95731
2023-07-29T02:30:39.918Z,95728
2023-07-29T02:32:40.023Z,95725
2023-07-29T02:34:39.962Z,95717
2023-07-29T02:37:39.935Z,95724
2023-07-29T02:39:39.934Z,95726
2023-07-29T02:42:39.962Z,95744
2023-07-29T02:45:39.949Z,95748
2023-07-29T02:47:40.071Z,95757
2023-07-29T02:49:39.974Z,95766
2023-07-29T02:52:40.000Z,95786
2023-07-29T02:54:39.944Z,95786
2023-07-29T02:56:39.979Z,95787
2023-07-29T02:58:39.985Z,95757
2023-07-29T03:00:40.056Z,95742
2023-07-29T03:02:40.068Z,95739
2023-07-29T03:04:39.967Z,95744
2023-07-29T03:06:40.031Z,95753
2023-07-29T03:08:40.022Z,95754
2023-07-29T03:10:40.036Z,95753
2023-07-29T03:12:39.987Z,95749
2023-07-29T03:14:40.043Z,95743
2023-07-29T03:16:40.369Z,95745
2023-07-29T03:18:40.041Z,95745
2023-07-29T03:20:40.018Z,95747
2023-07-29T03:22:40.095Z,95756
2023-07-29T03:24:40.069Z,95754
2023-07-29T03:26:40.440Z,95759
2023-07-29T03:29:40.072Z,95771
2023-07-29T03:31:40.103Z,95772
2023-07-29T03:33:40.051Z,95774
2023-07-29T03:35:40.090Z,95795
2023-07-29T03:37:40.112Z,95788
2023-07-29T03:40:40.089Z,95775
2023-07-29T03:42:40.102Z,95770
2023-07-29T03:44:40.115Z,95777
2023-07-29T03:46:40.533Z,95784
2023-07-29T03:48:40.157Z,95810
2023-07-29T03:50:40.129Z,95762
2023-07-29T03:52:40.134Z,95752
2023-07-29T03:54:40.128Z,95762
2023-07-29T03:56:40.291Z,95755
2023-07-29T03:58:40.149Z,95754
2023-07-29T04:00:40.228Z,95753
2023-07-29T04:02:40.227Z,95761
2023-07-29T04:04:40.176Z,95775
2023-07-29T04:06:40.171Z,95774
2023-07-29T04:08:40.173Z,95776
2023-07-29T04:10:40.183Z,95775
2023-07-29T04:12:40.146Z,95777
2023-07-29T04:15:40.180Z,95777
2023-07-29T04:17:40.221Z,95777
2023-07-29T04:19:40.246Z,95773
2023-07-29T04:21:40.210Z,95774
2023-07-29T04:23:40.212Z,95775
2023-07-29T04:25:40.178Z,95771
2023-07-29T04:27:40.215Z,95777
2023-07-29T04:29:40.226Z,95785
2023-07-29T04:31:40.303Z,95791
2023-07-29T04:33:40.207Z,95794
2023-07-29T04:35:40.264Z,95794
2023-07-29T04:37:40.259Z,95786
2023-07-29T04:39:40.254Z,95786
2023-07-29T04:41:40.220Z,95785
2023-07-29T04:43:40.294Z,95788
2023-07-29T04:45:40.307Z,95793
2023-07-29T04:47:40.317Z,95786
2023-07-29T04:49:40.337Z,95784
2023-07-29T04:51:40.239Z,95780
2023-07-29T04:53:40.278Z,95776
2023-07-29T04:55:40.292Z,95772
2023-07-29T04:57:40.303Z,95773
2023-07-29T04:59:40.268Z,95767
2023-07-29T05:01:40.355Z,95767
2023-07-29T05:04:40.296Z,95773
2023-07-29T05:06:40.426Z,95778
2023-07-29T05:08:40.334Z,95784
2023-07-29T05:10:40.322Z,95786
2023-07-29T05:12:40.312Z,95794
2023-07-29T05:14:40.360Z,95801
2023-07-29T05:16:40.337Z,95805
2023-07-29T05:18:40.354Z,95804
2023-07-29T05:20:40.336Z,95801
2023-07-29T05:22:40.360Z,95794
2023-07-29T05:24:40.410Z,95797
2023-07-29T05:26:40.569Z,95799
2023-07-29T05:28:40.368Z,95799
2023-07-29T05:31:40.406Z,95802
2023-07-29T05:33:40.525Z,95809
2023-07-29T05:35:40.412Z,95807
2023-07-29T05:37:40.396Z,95806
2023-07-29T05:39:40.407Z,95810
2023-07-29T05:41:40.418Z,95808
2023-07-29T05:43:40.383Z,95810
2023-07-29T05:45:40.426Z,95809
2023-07-29T05:47:40.535Z,95811
2023-07-29T05:49:40.436Z,95809
2023-07-29T05:51:40.397Z,95810
2023-07-29T05:53:40.459Z,95811
2023-07-29T05:55:40.445Z,95818
2023-07-29T05:57:43.078Z,95818
2023-07-29T05:59:40.443Z,95819
2023-07-29T06:01:40.464Z,95821
2023-07-29T06:03:40.554Z,95814
2023-07-29T06:05:40.496Z,95814
2023-07-29T06:07:40.480Z,95812
2023-07-29T06:09:40.448Z,95810
2023-07-29T06:11:40.499Z,95811
2023-07-29T06:13:40.505Z,95815
2023-07-29T06:15:40.524Z,95819
2023-07-29T06:17:40.524Z,95815
2023-07-29T06:19:40.532Z,95819
2023-07-29T06:21:40.513Z,95818
2023-07-29T06:23:40.538Z,95816
2023-07-29T06:25:40.504Z,95813
2023-07-29T06:27:40.528Z,95814
2023-07-29T06:29:40.525Z,95814
2023-07-29T06:31:40.548Z,95816
2023-07-29T06:33:40.559Z,95811
2023-07-29T06:35:40.535Z,95808
2023-07-29T06:37:40.576Z,95814
2023-07-29T06:39:40.555Z,95810
2023-07-29T06:41:40.627Z,95813
2023-07-29T06:43:40.536Z,95820
2023-07-29T06:45:40.575Z,95822
2023-07-29T06:47:40.635Z,95815
2023-07-29T06:49:40.669Z,95813
2023-07-29T06:51:40.598Z,95812
2023-07-29T06:54:40.616Z,95804
2023-07-29T06:56:40.697Z,95807
2023-07-29T06:58:40.625Z,95807
2023-07-29T07:00:40.644Z,95820
2023-07-29T07:02:40.679Z,95824
2023-07-29T07:04:40.588Z,95816
2023-07-29T07:06:40.630Z,95809
2023-07-29T07:08:40.634Z,95805
2023-07-29T07:10:40.633Z,95802
2023-07-29T07:12:40.633Z,95806
2023-07-29T07:14:40.623Z,95804
2023-07-29T07:16:41.102Z,95804
2023-07-29T07:18:40.669Z,95800
2023-07-29T07:20:40.657Z,95799
2023-07-29T07:22:40.637Z,95803
2023-07-29T07:25:40.696Z,95804
2023-07-29T07:27:40.660Z,95800
2023-07-29T07:29:40.695Z,95796
2023-07-29T07:31:40.701Z,95796
2023-07-29T07:33:40.670Z,95797
2023-07-29T07:35:40.686Z,95792
2023-07-29T07:37:40.776Z,95792
2023-07-29T07:39:40.749Z,95787
2023-07-29T07:41:40.728Z,95783
2023-07-29T07:43:40.725Z,95777
2023-07-29T07:45:40.737Z,95777
2023-07-29T07:47:40.793Z,95776
2023-07-29T07:49:40.734Z,95772
2023-07-29T07:51:40.756Z,95776
2023-07-29T07:53:40.724Z,95782
2023-07-29T07:55:40.754Z,95782
2023-07-29T07:57:40.770Z,95782
2023-07-29T07:59:40.768Z,95785
2023-07-29T08:01:40.801Z,95786
2023-07-29T08:03:40.844Z,95788
2023-07-29T08:05:40.790Z,95783
2023-07-29T08:07:40.796Z,95790
2023-07-29T08:09:40.780Z,95788
2023-07-29T08:11:40.839Z,95785
2023-07-29T08:13:40.810Z,95790
2023-07-29T08:15:40.823Z,95787
2023-07-29T08:17:40.831Z,95788
2023-07-29T08:19:40.789Z,95788
2023-07-29T08:21:40.826Z,95781
2023-07-29T08:23:40.856Z,95774
2023-07-29T08:25:40.831Z,95770
2023-07-29T08:27:40.809Z,95773
2023-07-29T08:29:40.857Z,95770
2023-07-29T08:31:40.880Z,95780
2023-07-29T08:33:40.858Z,95773
2023-07-29T08:35:40.855Z,95774
2023-07-29T08:37:40.883Z,95780
2023-07-29T08:39:40.896Z,95776
2023-07-29T08:41:40.885Z,95776
2023-07-29T08:43:40.888Z,95775
2023-07-29T08:45:40.856Z,95773
2023-07-29T08:47:40.915Z,95774
2023-07-29T08:49:40.907Z,95777
2023-07-29T08:51:40.904Z,95786
2023-07-29T08:53:40.870Z,95781
2023-07-29T08:55:40.932Z,95786
2023-07-29T08:57:40.925Z,95788
2023-07-29T08:59:40.929Z,95786
2023-07-29T09:01:40.936Z,95780
2023-07-29T09:03:40.952Z,95779
2023-07-29T09:05:40.944Z,95781
2023-07-29T09:07:40.944Z,95780
2023-07-29T09:09:40.951Z,95780
2023-07-29T09:11:40.937Z,95777
2023-07-29T09:13:40.971Z,95788
2023-07-29T09:15:40.973Z,95777
2023-07-29T09:17:41.001Z,95775
2023-07-29T09:19:40.962Z,95771
2023-07-29T09:21:40.994Z,95773
2023-07-29T09:23:41.000Z,95774
2023-07-29T09:25:40.995Z,95772
2023-07-29T09:27:41.016Z,95767
2023-07-29T09:29:40.974Z,95770
2023-07-29T09:31:41.007Z,95771
2023-07-29T09:33:41.015Z,95770
2023-07-29T09:35:41.038Z,95775
2023-07-29T09:37:40.988Z,95767
2023-07-29T09:39:41.032Z,95766
2023-07-29T09:41:41.058Z,95767
2023-07-29T09:43:41.044Z,95769
2023-07-29T09:45:41.022Z,95772
2023-07-29T09:47:43.658Z,95776
2023-07-29T09:49:41.066Z,95777
2023-07-29T09:51:41.332Z,95773
2023-07-29T09:53:41.041Z,95778
2023-07-29T09:55:41.085Z,95773
2023-07-29T09:59:41.090Z,95772
2023-07-29T10:01:41.399Z,95769
2023-07-29T10:03:41.170Z,95770
2023-07-29T10:05:41.102Z,95771
2023-07-29T10:07:41.125Z,95773
2023-07-29T10:09:41.122Z,95760
2023-07-29T10:11:41.087Z,95768
2023-07-29T10:13:41.422Z,95770
2023-07-29T10:15:41.133Z,95765
2023-07-29T10:17:41.161Z,95772
2023-07-29T10:19:41.152Z,95771
2023-07-29T10:21:41.148Z,95772
2023-07-29T10:23:41.158Z,95772
2023-07-29T10:25:41.182Z,95777
2023-07-29T10:27:41.167Z,95758
2023-07-29T10:29:41.209Z,95756
2023-07-29T10:31:41.186Z,95759
2023-07-29T10:33:41.239Z,95764
2023-07-29T10:35:41.191Z,95763
2023-07-29T10:37:41.168Z,95761
2023-07-29T10:39:41.272Z,95760
2023-07-29T10:41:41.200Z,95758
2023-07-29T10:43:41.227Z,95751
2023-07-29T10:45:41.221Z,95752
2023-07-29T10:47:41.279Z,95750
2023-07-29T10:49:41.226Z,95747
2023-07-29T10:51:41.232Z,95742
2023-07-29T10:53:41.239Z,95743
2023-07-29T10:55:41.215Z,95743
2023-07-29T10:57:41.248Z,95726
2023-07-29T10:59:41.254Z,95721
2023-07-29T11:01:41.326Z,95727
2023-07-29T11:03:41.235Z,95733
2023-07-29T11:05:41.281Z,95740
2023-07-29T11:07:41.273Z,95742
2023-07-29T11:09:41.271Z,95745
2023-07-29T11:11:41.264Z,95747
2023-07-29T11:13:41.291Z,95746
2023-07-29T11:15:41.308Z,95733
2023-07-29T11:17:41.361Z,95728
2023-07-29T11:19:41.328Z,95730
2023-07-29T11:21:41.264Z,95729
2023-07-29T11:23:41.330Z,95726
2023-07-29T11:25:41.341Z,95723
2023-07-29T11:27:41.330Z,95727
2023-07-29T11:29:41.317Z,95733
2023-07-29T11:31:41.460Z,95751
2023-07-29T11:33:41.349Z,95769
2023-07-29T11:35:41.370Z,95803
2023-07-29T11:37:41.357Z,95830
2023-07-29T11:39:41.338Z,95843
2023-07-29T11:41:41.361Z,95754
2023-07-29T11:43:41.372Z,95758
2023-07-29T11:45:51.826Z,95745
2023-07-29T11:47:41.389Z,95738
2023-07-29T11:49:41.390Z,95731
2023-07-29T11:51:41.388Z,95726
2023-07-29T11:53:41.380Z,95716
2023-07-29T11:55:41.377Z,95708
2023-07-29T11:57:41.408Z,95698
2023-07-29T12:00:41.404Z,95701
2023-07-29T12:02:41.465Z,95709
2023-07-29T12:04:41.440Z,95712
2023-07-29T12:06:41.444Z,95722
2023-07-29T12:08:41.395Z,95719
2023-07-29T12:10:41.449Z,95734
2023-07-29T12:12:41.492Z,95742
2023-07-29T12:14:41.462Z,95748
2023-07-29T12:16:41.497Z,95743
2023-07-29T12:18:41.495Z,95737
2023-07-29T12:20:41.460Z,95743
2023-07-29T12:22:41.484Z,95762
2023-07-29T12:24:41.492Z,95768
2023-07-29T12:26:41.452Z,95764
2023-07-29T12:28:41.590Z,95762
2023-07-29T12:30:41.539Z,95764
2023-07-29T12:32:41.516Z,95774
2023-07-29T12:34:41.484Z,95778
2023-07-29T12:36:41.503Z,95786
2023-07-29T12:38:41.533Z,95775
2023-07-29T12:40:41.579Z,95772
2023-07-29T12:42:41.488Z,95771
2023-07-29T12:44:41.542Z,95779
2023-07-29T12:47:41.554Z,95836
2023-07-29T12:49:41.560Z,95872
2023-07-29T12:51:41.542Z,95854
2023-07-29T12:53:41.557Z,95858
2023-07-29T12:55:41.550Z,95841
2023-07-29T12:57:41.568Z,95851
2023-07-29T12:59:41.567Z,95854
2023-07-29T13:01:41.591Z,95835
2023-07-29T13:03:41.645Z,95828
2023-07-29T13:05:41.541Z,95825
2023-07-29T13:07:41.606Z,95828
2023-07-29T13:09:41.597Z,95847
2023-07-29T13:12:41.617Z,95853
2023-07-29T13:14:41.613Z,95864
2023-07-29T13:16:41.939Z,95868
2023-07-29T13:18:41.605Z,95880
2023-07-29T13:20:41.619Z,95881
2023-07-29T13:22:41.647Z,95873
2023-07-29T13:25:41.669Z,95873
2023-07-29T13:27:41.661Z,95867
2023-07-29T13:29:41.680Z,95863
2023-07-29T13:31:41.637Z,95863
2023-07-29T13:33:41.692Z,95866
2023-07-29T13:35:41.666Z,95865
2023-07-29T13:37:41.684Z,95866
2023-07-29T13:39:41.647Z,95855
2023-07-29T13:41:41.688Z,95864
2023-07-29T13:43:41.690Z,95866
2023-07-29T13:45:41.699Z,95864
2023-07-29T13:47:41.784Z,95869
2023-07-29T13:49:41.697Z,95869
2023-07-29T13:51:41.703Z,95864
2023-07-29T13:55:41.741Z,95869
2023-07-29T13:57:41.684Z,95871
2023-07-29T13:59:41.755Z,95856
2023-07-29T14:01:41.827Z,95857
2023-07-29T14:03:41.748Z,95855
2023-07-29T14:05:41.769Z,95864
2023-07-29T14:07:41.767Z,95884
2023-07-29T14:09:41.759Z,95885
2023-07-29T14:11:41.779Z,95896
2023-07-29T14:13:41.763Z,95892
2023-07-29T14:15:41.781Z,95891
2023-07-29T14:17:41.813Z,95896
2023-07-29T14:19:41.786Z,95893
2023-07-29T14:21:41.808Z,95900
2023-07-29T14:23:41.746Z,95905
2023-07-29T14:25:41.795Z,95894
2023-07-29T14:27:41.797Z,95902
2023-07-29T14:30:41.826Z,95893
2023-07-29T14:32:41.857Z,95897
2023-07-29T14:34:41.813Z,95890
2023-07-29T14:36:41.803Z,95898
2023-07-29T14:38:41.821Z,95898
2023-07-29T14:40:41.782Z,95900
2023-07-29T14:42:41.844Z,95904
2023-07-29T14:44:41.821Z,95902
2023-07-29T14:46:41.857Z,95902
2023-07-29T14:48:41.859Z,95907
2023-07-29T14:52:41.842Z,95909
2023-07-29T14:54:41.872Z,95908
2023-07-29T14:56:41.880Z,95901
2023-07-29T14:58:41.904Z,95903
2023-07-29T15:00:41.899Z,95906
2023-07-29T15:02:41.961Z,95905
2023-07-29T15:04:41.906Z,95908
2023-07-29T15:06:41.911Z,95904
2023-07-29T15:08:41.907Z,95905
2023-07-29T15:10:41.893Z,95905
2023-07-29T15:13:41.923Z,95903
2023-07-29T15:15:41.896Z,95907
2023-07-29T15:17:41.963Z,95905
2023-07-29T15:19:41.932Z,95909
2023-07-29T15:21:41.951Z,95905
2023-07-29T15:23:41.908Z,95908
2023-07-29T15:25:41.967Z,95904
2023-07-29T15:27:41.959Z,95910
2023-07-29T15:29:42.002Z,95911
2023-07-29T15:31:41.933Z,95908
2023-07-29T15:33:41.986Z,95904
2023-07-29T15:35:41.980Z,95905
2023-07-29T15:37:41.992Z,95899
2023-07-29T15:39:42.991Z,95903
2023-07-29T15:41:41.953Z,95897
2023-07-29T15:43:41.983Z,95899
2023-07-29T15:45:42.008Z,95896
2023-07-29T15:47:42.067Z,95899
2023-07-29T15:49:41.987Z,95898
2023-07-29T15:51:42.018Z,95902
2023-07-29T15:54:42.024Z,95903
2023-07-29T15:57:41.992Z,95901
2023-07-29T15:59:42.065Z,95896
2023-07-29T16:01:42.070Z,95893
2023-07-29T16:04:42.038Z,95892
2023-07-29T16:06:42.059Z,95889
2023-07-29T16:08:42.074Z,95884
2023-07-29T16:10:42.049Z,95885
2023-07-29T16:12:43.588Z,95888
2023-07-29T16:14:42.094Z,95882
2023-07-29T16:16:42.163Z,95879
2023-07-29T16:18:42.056Z,95880
2023-07-29T16:20:42.117Z,95880
2023-07-29T16:22:42.115Z,95877
2023-07-29T16:24:42.118Z,95877
2023-07-29T16:26:42.130Z,95873
2023-07-29T16:28:42.081Z,95872
2023-07-29T16:30:42.121Z,95871
2023-07-29T16:33:42.146Z,95871
2023-07-29T16:35:42.135Z,95871
2023-07-29T16:38:42.127Z,95868
2023-07-29T16:40:50.611Z,95870
2023-07-29T16:42:42.152Z,95863
2023-07-29T16:44:42.152Z,95865
2023-07-29T16:46:42.168Z,95862
2023-07-29T16:48:42.190Z,95868
2023-07-29T16:50:42.186Z,95874
2023-07-29T16:52:42.127Z,95879
2023-07-29T16:54:42.172Z,95868
2023-07-29T16:56:42.203Z,95864
2023-07-29T16:58:42.226Z,95865
2023-07-29T17:00:42.202Z,95862
2023-07-29T17:02:42.305Z,95865
2023-07-29T17:04:42.204Z,95864
2023-07-29T17:06:42.238Z,95861
2023-07-29T17:09:42.235Z,95856
2023-07-29T17:11:42.237Z,95859
2023-07-29T17:13:42.231Z,95863
2023-07-29T17:15:42.224Z,95871
2023-07-29T17:17:42.254Z,95862
2023-07-29T17:19:42.254Z,95871
2023-07-29T17:21:42.248Z,95870
2023-07-29T17:23:42.236Z,95874
2023-07-29T17:25:42.273Z,95876
2023-07-29T17:27:42.262Z,95874
2023-07-29T17:29:42.276Z,95871
2023-07-29T17:31:42.303Z,95875
2023-07-29T17:33:42.253Z,95878
2023-07-29T17:35:42.375Z,95898
2023-07-29T17:37:42.284Z,95878
2023-07-29T17:39:42.342Z,95886
2023-07-29T17:41:42.341Z,95884
2023-07-29T17:43:42.331Z,95893
2023-07-29T17:45:42.332Z,95885
2023-07-29T17:47:42.353Z,95885
2023-07-29T17:49:42.309Z,95894
2023-07-29T17:51:42.344Z,95895
2023-07-29T17:53:42.343Z,95892
2023-07-29T17:55:42.354Z,95898
2023-07-29T17:58:42.358Z,95900
2023-07-29T18:00:42.381Z,95900
2023-07-29T18:03:42.393Z,95901
2023-07-29T18:05:42.368Z,95900
2023-07-29T18:07:42.348Z,95904
2023-07-29T18:09:42.403Z,95899
2023-07-29T18:11:42.384Z,95892
2023-07-29T18:13:42.433Z,95890
2023-07-29T18:15:42.356Z,95883
2023-07-29T18:17:42.606Z,95886
2023-07-29T18:19:42.483Z,95886
2023-07-29T18:22:42.402Z,95892
2023-07-29T18:24:42.419Z,95898
2023-07-29T18:26:42.677Z,95900
2023-07-29T18:28:42.415Z,95896
2023-07-29T18:30:42.441Z,95899
2023-07-29T18:32:42.469Z,95895
2023-07-29T18:34:42.450Z,95891
2023-07-29T18:36:45.045Z,95889
2023-07-29T18:38:42.460Z,95888
2023-07-29T18:41:42.465Z,95886
2023-07-29T18:43:42.471Z,95883
2023-07-29T18:45:42.474Z,95884
2023-07-29T18:47:42.535Z,95878
2023-07-29T18:50:42.485Z,95871
2023-07-29T18:52:42.530Z,95873
2023-07-29T18:54:42.467Z,95879
2023-07-29T18:56:42.497Z,95878
2023-07-29T18:58:42.503Z,95875
2023-07-29T19:00:42.510Z,95875
2023-07-29T19:02:42.578Z,95879
2023-07-29T19:04:42.529Z,95877
2023-07-29T19:06:42.531Z,95867
2023-07-29T19:08:42.531Z,95871
2023-07-29T19:10:42.506Z,95869
2023-07-29T19:12:42.561Z,95870
2023-07-29T19:14:42.565Z,95867
2023-07-29T19:16:42.594Z,95869
2023-07-29T19:18:42.551Z,95875
2023-07-29T19:20:42.534Z,95869
2023-07-29T19:22:42.590Z,95877
2023-07-29T19:24:42.574Z,95884
2023-07-29T19:26:42.611Z,95890
2023-07-29T19:28:42.573Z,95888
2023-07-29T19:30:42.605Z,95894
2023-07-29T19:32:42.627Z,95898
2023-07-29T19:34:42.620Z,95899
2023-07-29T19:36:42.568Z,95895
2023-07-29T19:38:42.630Z,95898
2023-07-29T19:41:42.614Z,95908
2023-07-29T19:43:44.714Z,95916
2023-07-29T19:45:43.570Z,95919
2023-07-29T19:47:42.635Z,95919
2023-07-29T19:49:42.652Z,95913
2023-07-29T19:51:42.643Z,95905
2023-07-29T19:53:42.659Z,95896
2023-07-29T19:55:42.654Z,95889
2023-07-29T19:57:42.626Z,95891
2023-07-29T19:59:49.175Z,95885
2023-07-29T20:01:42.738Z,95885
2023-07-29T20:03:42.740Z,95887
2023-07-29T20:05:42.699Z,95885
2023-07-29T20:07:42.662Z,95883
2023-07-29T20:09:42.742Z,95884
2023-07-29T20:11:42.710Z,95882
2023-07-29T20:13:42.698Z,95884
2023-07-29T20:15:42.700Z,95882
2023-07-29T20:17:42.793Z,95891
2023-07-29T20:19:42.710Z,95893
2023-07-29T20:21:42.719Z,95892
2023-07-29T20:23:42.694Z,95895
2023-07-29T20:25:42.743Z,95891
2023-07-29T20:27:42.741Z,95907
2023-07-29T20:29:42.751Z,95910
2023-07-29T20:31:42.739Z,95915
2023-07-29T20:33:42.761Z,95917
2023-07-29T20:36:42.743Z,95916
2023-07-29T20:38:42.775Z,95912
2023-07-29T20:40:42.770Z,95909
2023-07-29T20:42:42.778Z,95909
2023-07-29T20:44:42.758Z,95907
2023-07-29T20:46:42.781Z,95910
2023-07-29T20:48:42.818Z,95910
2023-07-29T20:50:46.175Z,95912
2023-07-29T20:52:42.804Z,95911
2023-07-29T20:54:42.797Z,95917
2023-07-29T20:56:42.811Z,95916
2023-07-29T21:01:43.078Z,95934
2023-07-29T21:03:42.835Z,95931
2023-07-29T21:06:42.884Z,95930
2023-07-29T21:09:42.849Z,95921
2023-07-29T21:11:42.850Z,95912
2023-07-29T21:13:42.905Z,95916
2023-07-29T21:16:42.896Z,95919
2023-07-29T21:20:42.845Z,95915
2023-07-29T21:22:42.880Z,95904
2023-07-29T21:24:42.880Z,95903
2023-07-29T21:26:42.886Z,95911
2023-07-29T21:28:42.871Z,95909
2023-07-29T21:30:42.926Z,95914
2023-07-29T21:33:42.888Z,95922
2023-07-29T21:35:42.932Z,95925
2023-07-29T21:37:42.933Z,95935
2023-07-29T21:41:42.914Z,95939
2023-07-29T21:43:42.927Z,95937
2023-07-29T21:45:42.949Z,95930
2023-07-29T21:47:43.029Z,95928
2023-07-29T21:49:42.932Z,95927
2023-07-29T21:51:42.965Z,95925
2023-07-29T21:53:42.980Z,95929
2023-07-29T21:55:42.978Z,95926
2023-07-29T21:57:42.966Z,95928
2023-07-29T21:59:42.980Z,95933
2023-07-29T22:01:42.987Z,95937
2023-07-29T22:05:42.992Z,95935
2023-07-29T22:08:43.015Z,95942
2023-07-29T22:10:42.969Z,95943
2023-07-29T22:12:43.025Z,95941
2023-07-29T22:15:42.988Z,95941
2023-07-29T22:19:43.040Z,95942
2023-07-29T22:21:43.022Z,95948
2023-07-29T22:23:58.132Z,95940
2023-07-29T22:26:43.041Z,95930
2023-07-29T22:28:43.001Z,95930
2023-07-29T22:30:43.049Z,95932
2023-07-29T22:33:43.055Z,95929
2023-07-29T22:35:43.087Z,95929
2023-07-29T22:37:43.062Z,95925
2023-07-29T22:40:43.077Z,95924
2023-07-29T22:42:43.093Z,95917
2023-07-29T22:44:43.098Z,95916
2023-07-29T22:46:43.075Z,95916
2023-07-29T22:48:43.095Z,95921
2023-07-29T22:52:43.142Z,95928
2023-07-29T22:54:43.101Z,95927
2023-07-29T22:56:43.122Z,95929
2023-07-29T22:59:43.130Z,95933
2023-07-29T23:01:43.161Z,95935
2023-07-29T23:04:43.156Z,95937
2023-07-29T23:06:43.155Z,95929
2023-07-29T23:08:43.151Z,95927
2023-07-29T23:13:43.190Z,95934
2023-07-29T23:18:43.184Z,95938
2023-07-29T23:22:43.193Z,95936
2023-07-29T23:24:43.197Z,95935
2023-07-29T23:26:43.220Z,95929
2023-07-29T23:29:43.226Z,95927
2023-07-29T23:31:43.267Z,95930
2023-07-29T23:33:43.185Z,95934
2023-07-29T23:37:43.237Z,95936
2023-07-29T23:39:43.238Z,95933
2023-07-29T23:41:43.199Z,95930
2023-07-29T23:43:43.274Z,95929
2023-07-29T23:45:43.302Z,95932
2023-07-29T23:47:43.294Z,95932
2023-07-29T23:51:43.283Z,95941
2023-07-29T23:53:43.287Z,95945
2023-07-29T23:57:43.273Z,95943
